Time;durP1;ratioP1;P1;durP2;ratioP2;P2;SDS_P1;SDS_P2;PMS_P1;PMS_P2;Temp;Humidity;BMP_temperature;BMP_pressure;BME280_temperature;BME280_humidity;BME280_pressure;Samples;Min_cycle;Max_cycle;Signal;HPM_P1;HPM_P2
2022/08/21 00:01:09;;;;;;;9.48;3.45;;;;;;;27.57;39.84;101758.38;5074536;28;20019;-77
2022/08/21 00:03:35;;;;;;;8.05;3.15;;;;;;;27.27;40.31;101750.50;5074372;28;20024;-77
2022/08/21 00:06:00;;;;;;;11.02;3.70;;;;;;;27.46;40.35;101755.53;5073824;28;20027;-77
2022/08/21 00:08:26;;;;;;;8.15;3.28;;;;;;;27.72;39.77;101751.09;5074288;28;20081;-77
2022/08/21 00:10:51;;;;;;;6.93;3.25;;;;;;;28.15;38.74;101741.94;5074053;28;20114;-77
2022/08/21 00:13:18;;;;;;;10.13;3.08;;;;;;;27.67;40.04;101747.00;5073582;28;20061;-77
2022/08/21 00:15:44;;;;;;;6.97;3.08;;;;;;;27.83;39.61;101747.66;5074187;28;20065;-77
2022/08/21 00:18:10;;;;;;;10.18;3.20;;;;;;;27.89;39.58;101752.63;5092105;28;20433;-77
2022/08/21 00:20:37;;;;;;;4.68;2.83;;;;;;;27.77;39.98;101742.72;5073524;28;20016;-77
2022/08/21 00:23:03;;;;;;;5.93;2.88;;;;;;;27.81;39.56;101740.66;5074149;28;20127;-77
2022/08/21 00:25:29;;;;;;;8.38;3.40;;;;;;;27.90;39.50;101742.72;5091917;28;20020;-77
2022/08/21 00:27:56;;;;;;;8.25;2.83;;;;;;;28.16;39.09;101749.00;5073443;28;20115;-77
2022/08/21 00:30:23;;;;;;;8.57;3.08;;;;;;;27.84;39.38;101749.38;5092065;28;20456;-77
2022/08/21 00:32:49;;;;;;;10.73;3.65;;;;;;;27.64;39.96;101741.84;5074019;28;20213;-77
2022/08/21 00:35:17;;;;;;;9.57;3.05;;;;;;;27.88;39.81;101740.16;5091489;28;20103;-77
2022/08/21 00:37:43;;;;;;;8.75;3.13;;;;;;;27.95;39.39;101739.75;5092141;28;20032;-77
2022/08/21 00:40:13;;;;;;;6.70;2.75;;;;;;;28.01;39.41;101733.97;5073104;28;20111;-77
2022/08/21 00:42:38;;;;;;;7.40;2.70;;;;;;;27.79;39.67;101721.97;5071593;28;20017;-77
2022/08/21 00:45:04;;;;;;;8.40;2.88;;;;;;;27.74;39.70;101727.69;5053782;28;20024;-78
2022/08/21 00:47:30;;;;;;;7.75;3.00;;;;;;;27.76;39.96;101730.25;5053334;28;20069;-77
2022/08/21 00:49:56;;;;;;;8.38;2.97;;;;;;;27.80;39.68;101731.75;5053657;28;20021;-78
2022/08/21 00:52:26;;;;;;;6.43;3.17;;;;;;;27.86;39.48;101725.97;5071557;28;20028;-77
2022/08/21 00:54:54;;;;;;;8.32;3.05;;;;;;;27.62;40.09;101723.16;5071246;28;20064;-77
2022/08/21 00:57:27;;;;;;;8.20;2.85;;;;;;;27.58;39.96;101727.88;5071740;28;20025;-77
2022/08/21 00:59:55;;;;;;;7.88;2.85;;;;;;;27.52;40.15;101722.94;5053509;28;20028;-77
2022/08/21 01:02:21;;;;;;;5.93;2.50;;;;;;;27.68;40.03;101722.72;5070975;28;20070;-77
2022/08/21 01:04:47;;;;;;;7.15;3.15;;;;;;;27.39;40.33;101732.78;5053566;28;20029;-77
2022/08/21 01:07:13;;;;;;;9.95;3.08;;;;;;;27.57;39.92;101734.22;5053756;28;20043;-77
2022/08/21 01:09:40;;;;;;;10.38;3.05;;;;;;;27.82;39.33;101729.84;5053139;28;20024;-77
2022/08/21 01:12:06;;;;;;;7.88;3.60;;;;;;;27.81;39.49;101725.44;5053269;28;20028;-77
2022/08/21 01:14:32;;;;;;;10.32;3.08;;;;;;;27.68;39.79;101732.63;5053739;28;20039;-77
2022/08/21 01:17:00;;;;;;;6.47;2.92;;;;;;;27.47;40.42;101729.56;5052910;28;20480;-77
2022/08/21 01:19:26;;;;;;;7.30;3.22;;;;;;;27.59;39.93;101728.75;5053585;28;20028;-77
2022/08/21 01:21:53;;;;;;;9.23;3.22;;;;;;;27.47;40.36;101719.69;5053586;28;20115;-77
2022/08/21 01:24:19;;;;;;;7.95;3.17;;;;;;;26.79;41.58;101728.63;5053063;28;20032;-77
2022/08/21 01:26:44;;;;;;;7.03;3.50;;;;;;;27.01;41.41;101737.00;5071113;28;20115;-77
2022/08/21 01:29:42;;;;;;;10.02;3.70;;;;;;;27.62;40.20;101727.69;5053014;28;20158;-79
2022/08/21 01:32:12;;;;;;;8.10;2.97;;;;;;;27.27;41.06;101731.72;5040164;28;20037;-77
2022/08/21 01:34:40;;;;;;;7.47;3.33;;;;;;;27.21;41.09;101724.94;5053588;28;20058;-77
2022/08/21 01:37:06;;;;;;;7.60;3.00;;;;;;;27.37;41.09;101729.34;5070578;28;20031;-77
2022/08/21 01:39:32;;;;;;;8.82;3.17;;;;;;;27.24;41.12;101724.75;5071260;28;20032;-77
2022/08/21 01:41:58;;;;;;;8.15;3.00;;;;;;;27.17;41.22;101718.06;5053340;28;20016;-77
2022/08/21 01:44:24;;;;;;;5.53;3.28;;;;;;;26.88;41.46;101722.69;5072389;28;20256;-77
2022/08/21 01:46:50;;;;;;;23.58;5.13;;;;;;;27.02;41.99;101725.31;5076781;28;20139;-77
2022/08/21 01:49:17;;;;;;;4.35;2.75;;;;;;;27.23;41.21;101714.97;5076984;28;20012;-77
2022/08/21 01:51:43;;;;;;;8.93;3.55;;;;;;;27.01;41.46;101712.00;5076521;28;20028;-77
2022/08/21 01:54:08;;;;;;;7.35;2.88;;;;;;;27.11;40.91;101715.81;5095189;28;20027;-77
2022/08/21 01:56:42;;;;;;;11.02;3.78;;;;;;;27.34;41.01;101714.28;5076743;28;20089;-77
2022/08/21 01:59:08;;;;;;;9.88;3.58;;;;;;;27.51;40.27;101710.47;5076142;28;20041;-76
2022/08/21 02:01:34;;;;;;;13.30;3.50;;;;;;;27.09;41.49;101713.22;5094985;28;20028;-77
2022/08/21 02:04:00;;;;;;;11.18;3.42;;;;;;;26.95;41.71;101699.84;5077019;28;20016;-78
2022/08/21 02:06:26;;;;;;;10.10;3.20;;;;;;;27.20;41.07;101695.53;5075843;28;20035;-77
2022/08/21 02:08:51;;;;;;;8.23;3.80;;;;;;;27.07;41.33;101706.25;5076577;28;20024;-77
2022/08/21 02:11:17;;;;;;;9.88;3.55;;;;;;;27.11;41.01;101690.78;5094757;28;20442;-77
2022/08/21 02:13:43;;;;;;;8.60;3.25;;;;;;;27.33;40.51;101696.44;5075961;28;20077;-77
2022/08/21 02:16:09;;;;;;;8.55;3.67;;;;;;;27.25;40.38;101699.63;5076592;28;20020;-77
2022/08/21 02:18:35;;;;;;;7.57;3.28;;;;;;;27.03;41.03;101699.34;5075574;28;20411;-77
2022/08/21 02:21:00;;;;;;;10.05;3.50;;;;;;;27.02;41.13;101692.25;5094535;28;20035;-78
2022/08/21 02:23:26;;;;;;;10.73;4.05;;;;;;;26.75;41.25;101687.78;5076241;28;20020;-77
2022/08/21 02:25:51;;;;;;;7.90;3.13;;;;;;;26.69;41.38;101690.81;5075525;28;20028;-77
2022/08/21 02:28:17;;;;;;;7.07;2.58;;;;;;;26.80;41.68;101688.31;5075969;28;20024;-77
2022/08/21 02:30:46;;;;;;;10.27;3.28;;;;;;;26.42;41.94;101699.69;5076137;28;20145;-77
2022/08/21 02:33:12;;;;;;;6.70;2.78;;;;;;;26.72;41.21;101694.19;5075168;28;20024;-77
2022/08/21 02:35:41;;;;;;;10.75;2.75;;;;;;;27.04;40.42;101691.19;5094210;28;20035;-77
2022/08/21 02:38:10;;;;;;;7.15;2.55;;;;;;;26.76;41.21;101692.16;5075916;28;20035;-77
2022/08/21 02:40:37;;;;;;;9.35;3.53;;;;;;;26.52;41.32;101695.44;5093199;28;20049;-77
2022/08/21 02:43:05;;;;;;;12.05;3.15;;;;;;;26.92;40.18;101692.88;5075640;28;20050;-77
2022/08/21 02:45:31;;;;;;;7.50;3.20;;;;;;;26.30;41.55;101679.88;5075955;28;20031;-77
2022/08/21 02:48:00;;;;;;;6.82;2.78;;;;;;;26.56;40.88;101691.59;5093060;28;20099;-77
2022/08/21 02:50:34;;;;;;;9.52;2.90;;;;;;;26.84;40.45;101688.97;5093628;28;20103;-77
2022/08/21 02:53:00;;;;;;;8.15;3.03;;;;;;;26.66;41.09;101685.66;5075699;28;20020;-77
2022/08/21 02:55:27;;;;;;;10.18;3.60;;;;;;;26.37;41.67;101685.69;5092271;28;20447;-77
2022/08/21 02:57:54;;;;;;;11.50;3.58;;;;;;;26.17;42.10;101695.88;5075383;28;20023;-77
2022/08/21 03:00:20;;;;;;;9.13;2.70;;;;;;;26.14;41.99;101690.66;5075327;28;20035;-78
2022/08/21 03:02:46;;;;;;;8.50;3.35;;;;;;;26.12;42.30;101687.25;5074860;28;20039;-77
2022/08/21 03:05:14;;;;;;;8.65;2.65;;;;;;;26.20;41.79;101684.06;5075395;28;20034;-77
2022/08/21 03:07:41;;;;;;;7.22;2.78;;;;;;;25.82;42.73;101684.63;5074357;28;20604;-77
2022/08/21 03:10:07;;;;;;;6.53;2.92;;;;;;;25.48;43.14;101687.50;5093489;28;20103;-77
2022/08/21 03:12:35;;;;;;;6.72;3.22;;;;;;;25.83;42.74;101681.84;5075465;28;20027;-77
2022/08/21 03:15:01;;;;;;;10.18;3.20;;;;;;;25.91;42.74;101676.88;5074583;28;20043;-78
2022/08/21 03:17:27;;;;;;;8.77;4.80;;;;;;;25.42;43.92;101676.31;5093040;28;20012;-77
2022/08/21 03:19:52;;;;;;;7.18;2.80;;;;;;;25.99;42.60;101675.53;5093182;28;20460;-76
2022/08/21 03:22:17;;;;;;;9.10;2.92;;;;;;;25.60;43.15;101669.00;5074653;28;20027;-77
2022/08/21 03:24:43;;;;;;;6.65;2.80;;;;;;;25.34;43.87;101668.75;5074954;28;20114;-77
2022/08/21 03:27:08;;;;;;;5.43;2.58;;;;;;;25.28;43.75;101658.38;5074747;28;20464;-77
2022/08/21 03:29:33;;;;;;;8.70;3.60;;;;;;;25.49;42.95;101657.13;5074127;28;20051;-77
2022/08/21 03:31:59;;;;;;;11.45;2.78;;;;;;;25.34;43.74;101658.91;5074967;28;20052;-77
2022/08/21 03:34:24;;;;;;;11.80;3.20;;;;;;;25.18;44.00;101658.94;5074899;28;20108;-77
2022/08/21 03:36:50;;;;;;;10.05;2.78;;;;;;;25.22;44.12;101660.47;5074346;28;20096;-77
2022/08/21 03:39:18;;;;;;;10.13;3.80;;;;;;;25.50;43.26;101653.50;5074478;28;20020;-77
2022/08/21 03:41:43;;;;;;;9.68;2.90;;;;;;;25.60;43.12;101659.16;5074568;28;20566;-77
2022/08/21 03:44:09;;;;;;;10.60;3.08;;;;;;;25.34;43.91;101666.06;5074021;28;20158;-77
2022/08/21 03:46:34;;;;;;;9.23;3.05;;;;;;;25.19;43.90;101660.63;5074390;28;20024;-76
2022/08/21 03:49:00;;;;;;;6.78;2.90;;;;;;;25.79;42.64;101658.88;5074324;28;20052;-77
2022/08/21 03:51:26;;;;;;;9.02;3.80;;;;;;;24.52;45.47;101652.84;5073764;28;20027;-77
2022/08/21 03:53:51;;;;;;;7.78;3.00;;;;;;;24.54;45.75;101653.63;5092693;28;20034;-77
2022/08/21 03:56:17;;;;;;;7.57;2.80;;;;;;;25.69;43.08;101655.03;5092832;28;20024;-77
2022/08/21 03:58:42;;;;;;;12.13;2.75;;;;;;;25.42;43.42;101655.78;5073504;28;20487;-77
2022/08/21 04:01:08;;;;;;;9.65;2.97;;;;;;;25.19;44.37;101654.44;5074295;28;20012;-76
2022/08/21 04:03:35;;;;;;;7.03;2.78;;;;;;;25.14;44.45;101657.38;5074429;28;20031;-77
2022/08/21 04:06:01;;;;;;;11.75;3.03;;;;;;;25.28;44.46;101655.69;5073313;28;20063;-77
2022/08/21 04:08:26;;;;;;;13.30;3.22;;;;;;;25.27;43.86;101656.66;5092297;28;20067;-77
2022/08/21 04:10:55;;;;;;;7.90;3.30;;;;;;;25.86;43.13;101662.06;5074493;28;20024;-77
2022/08/21 04:13:21;;;;;;;9.48;3.30;;;;;;;25.91;42.88;101663.50;5092356;28;20019;-77
2022/08/21 04:15:46;;;;;;;11.88;3.35;;;;;;;25.67;43.18;101665.00;5074444;28;20023;-77
2022/08/21 04:18:12;;;;;;;5.90;2.58;;;;;;;25.83;42.97;101664.91;5073460;28;20035;-77
2022/08/21 04:20:39;;;;;;;13.13;3.13;;;;;;;26.08;42.46;101656.25;5074209;28;20567;-77
2022/08/21 04:23:04;;;;;;;6.72;2.72;;;;;;;25.29;43.95;101670.78;5074359;28;20093;-77
2022/08/21 04:25:30;;;;;;;12.77;3.20;;;;;;;25.70;42.86;101662.13;5073318;28;20079;-77
2022/08/21 04:27:56;;;;;;;7.20;3.00;;;;;;;25.59;42.93;101667.28;5074051;28;20016;-78
2022/08/21 04:30:22;;;;;;;11.93;4.18;;;;;;;25.44;43.70;101664.56;5074009;28;20031;-77
2022/08/21 04:32:50;;;;;;;13.27;3.33;;;;;;;24.65;45.20;101663.75;5091482;28;20098;-77
2022/08/21 04:35:18;;;;;;;8.45;3.05;;;;;;;25.36;44.06;101667.72;5074050;28;20020;-77
2022/08/21 04:37:43;;;;;;;9.10;3.30;;;;;;;25.57;43.28;101673.56;5074260;28;20031;-77
2022/08/21 04:40:10;;;;;;;8.95;3.63;;;;;;;25.18;44.15;101674.97;5091093;28;20020;-77
2022/08/21 04:42:44;;;;;;;7.38;2.92;;;;;;;25.51;43.66;101682.00;5072027;28;20012;-77
2022/08/21 04:45:15;;;;;;;12.63;3.83;;;;;;;25.03;44.84;101681.19;5053954;28;20020;-77
2022/08/21 04:47:40;;;;;;;10.52;3.47;;;;;;;25.24;44.44;101682.63;5071204;28;20412;-77
2022/08/21 04:50:06;;;;;;;8.50;2.88;;;;;;;25.54;43.41;101681.81;5054082;28;20020;-77
2022/08/21 04:52:32;;;;;;;16.05;3.35;;;;;;;24.24;46.38;101687.38;5054045;28;20141;-77
2022/08/21 04:54:57;;;;;;;7.82;3.35;;;;;;;24.86;45.60;101682.19;5052841;28;20411;-77
2022/08/21 04:57:22;;;;;;;9.43;3.17;;;;;;;24.81;45.62;101676.22;5053855;28;20032;-77
2022/08/21 04:59:51;;;;;;;11.68;4.45;;;;;;;25.22;45.69;101686.34;5053845;28;20063;-77
2022/08/21 05:02:17;;;;;;;16.77;4.03;;;;;;;24.84;46.38;101679.59;5052956;28;20051;-77
2022/08/21 05:04:50;;;;;;;8.48;4.07;;;;;;;24.77;46.56;101688.03;5071689;28;20029;-76
2022/08/21 05:07:22;;;;;;;15.23;5.18;;;;;;;25.14;45.80;101689.47;5053059;28;20021;-77
2022/08/21 05:09:48;;;;;;;12.23;4.70;;;;;;;25.01;46.74;101688.47;5071802;28;20025;-77
2022/08/21 05:12:13;;;;;;;17.30;5.07;;;;;;;23.88;49.22;101697.28;5071661;28;20032;-77
2022/08/21 05:14:38;;;;;;;16.45;4.55;;;;;;;25.08;46.71;101692.50;5053038;28;20024;-77
2022/08/21 05:17:05;;;;;;;16.20;5.72;;;;;;;24.75;47.74;101693.47;5053907;28;20020;-77
2022/08/21 05:19:30;;;;;;;15.38;5.55;;;;;;;24.61;48.99;101678.22;5075015;28;20024;-77
2022/08/21 05:21:56;;;;;;;17.17;4.75;;;;;;;25.44;46.28;101680.59;5074659;28;20480;-77
2022/08/21 05:24:21;;;;;;;14.95;4.53;;;;;;;25.09;47.63;101685.31;5075458;28;20348;-78
2022/08/21 05:26:47;;;;;;;20.17;5.65;;;;;;;25.15;47.11;101690.34;5057486;28;20024;-77
2022/08/21 05:29:16;;;;;;;19.48;5.75;;;;;;;25.57;46.77;101692.31;5056942;28;20025;-77
2022/08/21 05:31:41;;;;;;;16.67;4.45;;;;;;;25.23;47.67;101699.63;5075211;28;20025;-77
2022/08/21 05:34:07;;;;;;;22.83;6.05;;;;;;;24.97;48.42;101681.56;5075380;28;20103;-77
2022/08/21 05:36:33;;;;;;;20.17;5.22;;;;;;;24.90;48.29;101692.59;5056682;28;20024;-77
2022/08/21 05:38:58;;;;;;;16.38;5.40;;;;;;;25.15;48.86;101693.84;5057039;28;20024;-77
2022/08/21 05:41:23;;;;;;;17.67;5.57;;;;;;;26.06;45.74;101691.16;5056964;28;20452;-77
2022/08/21 05:43:49;;;;;;;14.57;5.07;;;;;;;24.48;50.29;101695.84;5068588;28;20534;-77
2022/08/21 05:46:15;;;;;;;14.32;4.60;;;;;;;23.97;52.45;101701.25;5076968;28;20024;-77
2022/08/21 05:48:40;;;;;;;10.48;4.68;;;;;;;25.49;48.24;101694.59;5076876;28;20082;-77
2022/08/21 05:51:11;;;;;;;20.27;5.50;;;;;;;24.82;49.53;101702.00;5076245;28;20020;-77
2022/08/21 05:53:37;;;;;;;18.35;5.43;;;;;;;26.12;47.02;101708.69;5076883;28;20059;-77
2022/08/21 05:56:03;;;;;;;12.50;5.15;;;;;;;25.85;47.53;101701.34;5095013;28;20032;-77
2022/08/21 05:58:30;;;;;;;22.48;5.75;;;;;;;26.42;46.20;101699.69;5076249;28;20081;-76
2022/08/21 06:00:57;;;;;;;12.73;5.20;;;;;;;25.77;47.99;101700.94;5076860;28;20016;-77
2022/08/21 06:03:27;;;;;;;13.40;4.95;;;;;;;26.26;46.22;101698.94;5076694;28;20032;-77
2022/08/21 06:05:53;;;;;;;12.40;4.35;;;;;;;26.13;46.18;101694.34;5076672;28;20043;-77
2022/08/21 06:08:19;;;;;;;18.17;4.55;;;;;;;26.74;44.83;101694.09;5095091;28;20027;-77
2022/08/21 06:10:46;;;;;;;12.55;5.05;;;;;;;26.16;46.79;101698.59;5094613;28;20032;-77
2022/08/21 06:13:12;;;;;;;15.45;4.53;;;;;;;25.79;48.41;101693.69;5094901;28;20036;-77
2022/08/21 06:15:37;;;;;;;14.73;4.82;;;;;;;24.96;50.16;101685.19;5094710;28;20498;-77
2022/08/21 06:18:03;;;;;;;14.25;5.00;;;;;;;25.64;48.63;101698.16;5076002;28;20028;-77
2022/08/21 06:20:29;;;;;;;17.02;4.75;;;;;;;25.93;48.64;101689.31;5076491;28;20027;-77
2022/08/21 06:22:54;;;;;;;16.75;4.60;;;;;;;25.57;49.50;101686.97;5076307;28;20094;-77
2022/08/21 06:25:20;;;;;;;14.52;4.13;;;;;;;27.01;45.58;101680.69;5093625;28;20078;-77
2022/08/21 06:27:46;;;;;;;16.27;4.47;;;;;;;27.42;44.10;101689.59;5076227;28;20365;-77
2022/08/21 06:30:11;;;;;;;19.90;5.03;;;;;;;26.50;46.82;101692.00;5076205;28;20074;-77
2022/08/21 06:32:37;;;;;;;10.48;3.90;;;;;;;26.57;46.60;101693.31;5093485;28;20032;-77
2022/08/21 06:35:03;;;;;;;16.67;4.68;;;;;;;26.70;46.11;101693.41;5094267;28;20031;-77
2022/08/21 06:37:29;;;;;;;14.05;4.07;;;;;;;25.24;49.72;101701.34;5076109;28;20019;-77
2022/08/21 06:39:54;;;;;;;13.77;4.10;;;;;;;25.76;49.29;101687.66;5075320;28;20032;-76
2022/08/21 06:42:19;;;;;;;13.13;4.03;;;;;;;24.97;52.01;101687.75;5076205;28;20402;-77
2022/08/21 06:44:45;;;;;;;16.25;4.55;;;;;;;24.87;51.54;101686.59;5075996;28;20062;-76
2022/08/21 06:47:11;;;;;;;22.77;4.93;;;;;;;25.64;50.60;101687.47;5093700;28;20028;-77
2022/08/21 06:49:37;;;;;;;19.10;4.63;;;;;;;25.50;51.75;101688.28;5076039;28;20024;-78
2022/08/21 06:52:03;;;;;;;20.23;5.05;;;;;;;25.34;50.29;101685.66;5075483;28;20372;-77
2022/08/21 06:54:28;;;;;;;11.88;4.18;;;;;;;26.74;47.01;101678.84;5075224;28;20381;-77
2022/08/21 06:56:54;;;;;;;13.90;4.00;;;;;;;26.94;46.52;101681.19;5075859;28;20024;-78
2022/08/21 06:59:19;;;;;;;13.90;3.92;;;;;;;25.46;51.00;101680.50;5093741;28;20024;-77
2022/08/21 07:01:44;;;;;;;12.25;3.65;;;;;;;25.69;51.33;101685.38;5074800;28;20020;-77
2022/08/21 07:04:10;;;;;;;16.45;3.95;;;;;;;25.19;52.13;101687.38;5075838;28;20028;-78
2022/08/21 07:06:35;;;;;;;17.52;4.20;;;;;;;27.30;46.36;101677.88;5075406;28;20024;-78
2022/08/21 07:09:02;;;;;;;14.25;3.55;;;;;;;25.99;48.55;101680.88;5092508;28;20036;-76
2022/08/21 07:11:27;;;;;;;16.67;4.53;;;;;;;27.59;46.58;101678.56;5075510;28;20074;-77
2022/08/21 07:13:54;;;;;;;11.38;3.67;;;;;;;27.61;45.88;101683.00;5092866;28;20511;-77
2022/08/21 07:16:20;;;;;;;16.98;4.18;;;;;;;28.05;44.59;101681.72;5075604;28;20185;-78
2022/08/21 07:18:46;;;;;;;13.25;3.92;;;;;;;27.99;44.59;101687.53;5075049;28;20031;-78
2022/08/21 07:21:12;;;;;;;17.92;3.65;;;;;;;27.61;46.77;101693.72;5074829;28;20032;-78
2022/08/21 07:23:42;;;;;;;17.52;4.13;;;;;;;29.81;42.39;101694.78;5075475;28;20169;-78
2022/08/21 07:26:07;;;;;;;21.65;3.90;;;;;;;31.51;37.90;101689.94;5075115;28;20035;-77
2022/08/21 07:28:33;;;;;;;16.15;2.88;;;;;;;32.82;35.77;101699.19;5074755;28;20024;-77
2022/08/21 07:31:00;;;;;;;11.68;3.10;;;;;;;31.97;36.02;101701.31;5074995;28;20024;-78
2022/08/21 07:33:28;;;;;;;13.70;2.78;;;;;;;33.22;35.06;101697.34;5074673;28;20020;-77
2022/08/21 07:35:54;;;;;;;14.65;3.08;;;;;;;32.99;34.28;101700.38;5074505;28;20028;-77
2022/08/21 07:38:20;;;;;;;10.00;2.80;;;;;;;33.91;32.72;101690.88;5075059;28;20031;-77
2022/08/21 07:40:47;;;;;;;9.35;2.63;;;;;;;32.41;35.06;101692.97;5092184;28;20020;-77
2022/08/21 07:43:13;;;;;;;9.32;2.22;;;;;;;34.37;31.67;101688.25;5074194;28;20407;-78
2022/08/21 07:45:38;;;;;;;12.25;2.72;;;;;;;34.14;32.68;101690.47;5074560;28;20030;-77
2022/08/21 07:48:04;;;;;;;11.13;2.30;;;;;;;35.66;30.99;101687.91;5092899;28;20089;-77
2022/08/21 07:50:30;;;;;;;8.48;2.30;;;;;;;33.96;32.09;101696.69;5073799;28;20115;-77
2022/08/21 07:52:55;;;;;;;8.10;2.50;;;;;;;36.79;29.35;101691.47;5092780;28;20054;-77
2022/08/21 07:55:23;;;;;;;8.52;2.35;;;;;;;34.32;32.29;101688.72;5074539;28;20412;-78
2022/08/21 07:57:49;;;;;;;11.10;2.30;;;;;;;33.75;32.27;101696.88;5074143;28;20467;-77
2022/08/21 08:00:17;;;;;;;9.73;2.30;;;;;;;36.86;28.21;101689.78;5092578;28;20078;-78
2022/08/21 08:02:46;;;;;;;9.73;2.35;;;;;;;37.05;28.03;101694.06;5092432;28;20395;-77
2022/08/21 08:05:12;;;;;;;7.30;2.50;;;;;;;36.46;28.78;101702.28;5073638;28;20073;-77
2022/08/21 08:07:38;;;;;;;9.00;2.28;;;;;;;36.48;28.73;101692.94;5074331;28;20020;-77
2022/08/21 08:10:06;;;;;;;8.75;2.30;;;;;;;37.09;27.40;101689.97;5073654;28;20039;-77
2022/08/21 08:12:33;;;;;;;11.80;2.88;;;;;;;34.90;30.26;101697.50;5074099;28;20103;-77
2022/08/21 08:15:00;;;;;;;9.55;2.30;;;;;;;36.23;29.81;101693.84;5073901;28;20024;-77
2022/08/21 08:17:26;;;;;;;16.27;3.13;;;;;;;34.84;30.55;101687.25;5091691;28;20028;-77
2022/08/21 08:19:52;;;;;;;9.90;2.13;;;;;;;37.80;27.42;101686.72;5092425;28;20066;-77
2022/08/21 08:22:21;;;;;;;15.77;2.35;;;;;;;36.84;27.46;101683.69;5074379;28;20070;-77
2022/08/21 08:24:47;;;;;;;9.43;2.38;;;;;;;36.98;27.33;101693.88;5073281;28;20426;-77
2022/08/21 08:27:12;;;;;;;10.88;2.47;;;;;;;37.18;27.80;101693.56;5073897;28;20028;-77
2022/08/21 08:29:37;;;;;;;11.45;2.30;;;;;;;38.41;26.26;101694.31;5073756;28;20077;-78
2022/08/21 08:32:04;;;;;;;8.93;1.95;;;;;;;35.91;28.06;101700.84;5073335;28;20495;-77
2022/08/21 08:34:30;;;;;;;6.20;1.73;;;;;;;33.92;31.04;101695.28;5073878;28;20054;-76
2022/08/21 08:36:58;;;;;;;11.60;2.00;;;;;;;35.15;29.89;101681.41;5073970;28;20039;-77
2022/08/21 08:39:24;;;;;;;9.93;2.10;;;;;;;34.42;31.09;101682.38;5091174;28;20038;-78
2022/08/21 08:41:56;;;;;;;9.77;2.28;;;;;;;33.99;31.93;101684.69;5092090;28;20471;-77
2022/08/21 08:44:21;;;;;;;;;;;;;;;34.30;31.94;101685.28;5075795;28;20056;-78
2022/08/21 08:46:50;;;;;;;13.63;3.15;;;;;;;33.20;31.92;101675.84;5053293;28;19965;-77
2022/08/21 08:49:23;;;;;;;9.10;2.17;;;;;;;33.13;33.22;101680.13;5072003;28;20034;-77
2022/08/21 08:52:13;;;;;;;8.23;2.33;;;;;;;33.16;32.65;101677.13;5071645;28;20024;-77
2022/08/21 08:55:04;;;;;;;8.18;2.35;;;;;;;34.31;30.45;101678.00;5057261;28;20020;-77
2022/08/21 08:57:31;;;;;;;11.52;2.20;;;;;;;34.89;29.95;101673.22;5057879;28;20024;-78
2022/08/21 09:00:03;;;;;;;9.13;1.95;;;;;;;33.47;32.25;101674.28;5057239;28;20085;-77
2022/08/21 09:02:28;;;;;;;13.40;2.25;;;;;;;35.90;28.55;101678.25;5057976;28;20025;-78
2022/08/21 09:04:55;;;;;;;10.70;2.00;;;;;;;36.21;27.51;101669.53;5075442;28;20040;-77
2022/08/21 09:07:32;;;;;;;6.30;1.67;;;;;;;35.99;26.75;101671.81;5057117;28;20054;-77
2022/08/21 09:09:57;;;;;;;9.48;1.98;;;;;;;35.99;27.37;101671.81;5057833;28;20477;-77
2022/08/21 09:12:42;;;;;;;6.45;1.77;;;;;;;35.14;27.84;101671.56;5057970;28;20124;-77
2022/08/21 09:15:28;;;;;;;7.68;1.73;;;;;;;36.28;27.51;101675.16;5074934;28;20107;-77
2022/08/21 09:18:05;;;;;;;9.20;2.15;;;;;;;35.02;28.24;101672.81;5057372;28;20030;-77
2022/08/21 09:20:58;;;;;;;7.03;1.40;;;;;;;37.24;26.73;101675.69;5056882;28;20471;-76
2022/08/21 09:23:33;;;;;;;7.82;1.85;;;;;;;37.71;25.38;101672.19;5057360;28;20084;-77
2022/08/21 09:26:11;;;;;;;10.05;2.13;;;;;;;35.56;28.45;101668.16;5057319;28;20468;-78
2022/08/21 09:28:37;;;;;;;10.80;2.03;;;;;;;34.39;28.57;101669.09;5056833;28;20051;-78
2022/08/21 09:31:06;;;;;;;5.20;1.85;;;;;;;33.83;28.79;101666.34;5057087;28;20020;-77
2022/08/21 09:33:32;;;;;;;7.93;1.55;;;;;;;35.78;27.85;101674.06;5057208;28;20031;-77
2022/08/21 09:35:58;;;;;;;5.43;1.58;;;;;;;32.80;30.54;101674.13;5056515;28;20024;-77
2022/08/21 09:38:33;;;;;;;6.88;1.70;;;;;;;32.38;31.43;101674.31;5057129;28;20029;-77
2022/08/21 09:41:03;;;;;;;7.97;1.55;;;;;;;32.65;30.67;101677.22;5057113;28;20039;-77
2022/08/21 09:43:29;;;;;;;9.13;2.15;;;;;;;34.63;29.74;101669.34;5065745;28;20060;-77
2022/08/21 09:46:06;;;;;;;6.00;1.63;;;;;;;34.98;28.63;101678.56;5077233;28;20436;-78
2022/08/21 09:48:47;;;;;;;5.35;1.90;;;;;;;34.63;29.31;101674.78;5094626;28;20027;-77
2022/08/21 09:51:20;;;;;;;4.80;1.67;;;;;;;36.05;26.85;101672.19;5076721;28;20114;-77
2022/08/21 09:53:54;;;;;;;9.93;1.55;;;;;;;34.38;28.03;101670.13;5095022;28;20039;-76
2022/08/21 09:59:16;;;;;;;8.05;1.75;;;;;;;36.54;25.52;101656.03;5095446;28;20123;-78
2022/08/21 10:01:44;;;;;;;6.35;1.70;;;;;;;36.16;24.88;101664.59;5076765;28;20115;-77
2022/08/21 10:04:10;;;;;;;4.88;1.40;;;;;;;36.28;25.52;101669.72;5093566;28;20449;-77
2022/08/21 10:06:36;;;;;;;5.20;1.58;;;;;;;33.24;28.57;101674.59;5076496;28;20078;-77
2022/08/21 10:09:13;;;;;;;5.03;1.40;;;;;;;33.21;29.27;101666.72;5076455;28;20032;-76
2022/08/21 10:11:40;;;;;;;5.57;1.40;;;;;;;33.57;29.48;101671.53;5075699;28;20107;-77
2022/08/21 10:14:18;;;;;;;9.52;1.85;;;;;;;32.10;32.35;101679.47;5076307;28;20454;-77
2022/08/21 10:17:04;;;;;;;6.50;2.03;;;;;;;32.56;31.63;101669.94;5093925;28;20024;-77
2022/08/21 10:19:45;;;;;;;5.63;1.25;;;;;;;33.89;28.64;101671.16;5094617;28;20038;-77
2022/08/21 10:22:22;;;;;;;6.00;1.40;;;;;;;33.38;29.28;101672.44;5094752;28;20027;-77
2022/08/21 10:25:11;;;;;;;7.85;1.42;;;;;;;31.66;31.22;101671.56;5093724;28;20035;-77
2022/08/21 10:27:54;;;;;;;8.05;1.55;;;;;;;31.34;33.49;101669.78;5075341;28;20402;-76
2022/08/21 10:30:50;;;;;;;7.47;2.25;;;;;;;33.26;31.02;101669.91;5076015;28;20024;-76
2022/08/21 10:33:24;;;;;;;9.38;2.33;;;;;;;33.04;32.23;101672.84;5076298;28;20484;-77
2022/08/21 10:36:08;;;;;;;13.23;1.70;;;;;;;33.87;30.67;101672.31;5075895;28;20472;-77
2022/08/21 10:38:42;;;;;;;9.77;2.80;;;;;;;32.88;31.99;101655.34;5075371;28;20502;-77
2022/08/21 10:41:11;;;;;;;8.68;2.17;;;;;;;32.83;32.10;101662.19;5075997;28;20115;-77
2022/08/21 10:44:06;;;;;;;8.45;1.90;;;;;;;31.47;33.96;101664.16;5083481;28;20087;-77
2022/08/21 10:46:56;;;;;;;5.40;1.38;;;;;;;31.52;33.38;101659.22;5054894;28;20028;-77
2022/08/21 10:49:39;;;;;;;6.50;1.83;;;;;;;31.78;33.08;101650.75;5055677;28;20111;-77
2022/08/21 10:52:46;;;;;;;9.88;1.60;;;;;;;32.29;32.16;101652.50;5073092;28;20499;-77
2022/08/21 10:55:17;;;;;;;11.57;1.98;;;;;;;33.30;30.55;101665.91;5060305;28;20071;-77
2022/08/21 10:57:48;;;;;;;8.98;1.45;;;;;;;32.74;31.19;101659.31;5055959;28;20065;-77
2022/08/21 11:00:19;;;;;;;9.75;1.70;;;;;;;31.99;32.07;101652.53;5073018;28;20032;-77
2022/08/21 11:02:53;;;;;;;8.43;1.80;;;;;;;33.34;30.07;101649.34;5055356;28;20061;-77
2022/08/21 11:05:32;;;;;;;4.93;1.40;;;;;;;34.86;27.62;101652.66;5073490;28;20499;-77
2022/08/21 11:08:08;;;;;;;6.18;1.40;;;;;;;33.48;29.11;101673.25;5054663;28;20579;-78
2022/08/21 11:10:41;;;;;;;6.25;1.30;;;;;;;32.49;29.55;101660.66;5055497;28;20024;-77
2022/08/21 11:13:17;;;;;;;9.07;1.50;;;;;;;33.41;28.83;101659.44;5072840;28;20021;-76
2022/08/21 11:16:00;;;;;;;7.60;3.25;;;;;;;33.81;27.41;101671.94;5054220;28;20055;-77
2022/08/21 11:18:44;;;;;;;6.55;1.40;;;;;;;34.73;26.00;101660.31;5055495;28;20020;-77
2022/08/21 11:21:13;;;;;;;6.40;1.42;;;;;;;34.42;27.21;101660.69;5054466;28;20034;-77
2022/08/21 11:23:49;;;;;;;5.70;1.58;;;;;;;31.42;30.87;101671.81;5055237;28;20115;-77
2022/08/21 11:26:23;;;;;;;4.38;1.20;;;;;;;34.05;27.61;101664.28;5055139;28;20028;-78
2022/08/21 11:29:01;;;;;;;7.28;1.40;;;;;;;31.81;30.14;101666.69;5054335;28;20030;-77
2022/08/21 11:31:47;;;;;;;5.28;1.20;;;;;;;33.57;29.32;101671.53;5055419;28;20063;-78